GEC1UB EDDN-EDDC
Flight info
| Callsign | GEC1UB |
|---|---|
| Flight time | 0h 39m |
| Altitude | 25000 |
| Route | ERETO1C ERETO Z715 ABKIS Q240 DRN |
| Aircraft | MD11/H-SDE1E2E3FGHIJ2J3J4J5M1RWXY/LB1D1 |
Departure
| Time | 2026-05-01 10:28 |
|---|---|
| Airport | Nuremberg Airport (EDDN) |
Arrival
| Time | 2026-05-01 11:08 |
|---|---|
| Airport | Dresden Airport (EDDC) |
| Time | Latitude | Longitude | Altitude | Speed | Heading |
|---|---|---|---|---|---|
| 2026-05-01 10:00 | 49.49638 | 11.07864 | 1430 ft | 0 kts | 188° |
| 2026-05-01 10:18 | 49.49639 | 11.07864 | 1038 ft | 0 kts | 188° |
| 2026-05-01 10:22 | 49.49636 | 11.07863 | 1038 ft | 3 kts | 188° |
| 2026-05-01 10:22 | 49.49591 | 11.07767 | 1037 ft | 7 kts | 262° |
| 2026-05-01 10:23 | 49.49592 | 11.07727 | 1037 ft | 2 kts | 276° |
| 2026-05-01 10:23 | 49.49608 | 11.07552 | 1037 ft | 12 kts | 278° |
| 2026-05-01 10:23 | 49.49621 | 11.07423 | 1036 ft | 12 kts | 278° |
| 2026-05-01 10:24 | 49.49643 | 11.07243 | 1035 ft | 1 kts | 307° |
| 2026-05-01 10:24 | 49.49722 | 11.07215 | 1032 ft | 9 kts | 332° |
| 2026-05-01 10:25 | 49.49758 | 11.06987 | 1029 ft | 23 kts | 278° |
| 2026-05-01 10:25 | 49.49828 | 11.06270 | 1033 ft | 43 kts | 279° |
| 2026-05-01 10:26 | 49.49873 | 11.06004 | 1040 ft | 16 kts | 312° |
| 2026-05-01 10:26 | 49.49922 | 11.05959 | 1042 ft | 3 kts | 339° |
| 2026-05-01 10:26 | 49.49975 | 11.05937 | 1041 ft | 9 kts | 354° |
| 2026-05-01 10:27 | 49.50036 | 11.06004 | 1040 ft | 5 kts | 74° |
| 2026-05-01 10:27 | 49.50014 | 11.06321 | 1033 ft | 53 kts | 98° |
| 2026-05-01 10:28 | 49.49906 | 11.07425 | 1043 ft | 150 kts | 99° |
| 2026-05-01 10:28 | 49.49503 | 11.11329 | 2456 ft | 204 kts | 101° |
| 2026-05-01 10:28 | 49.49246 | 11.13551 | 3435 ft | 209 kts | 100° |
| 2026-05-01 10:29 | 49.49306 | 11.17809 | 4558 ft | 234 kts | 75° |
| 2026-05-01 10:29 | 49.50155 | 11.20055 | 4714 ft | 252 kts | 51° |
| 2026-05-01 10:30 | 49.52886 | 11.23669 | 5457 ft | 264 kts | 37° |
| 2026-05-01 10:30 | 49.56104 | 11.26460 | 6194 ft | 267 kts | 32° |
| 2026-05-01 10:31 | 49.59374 | 11.29216 | 6902 ft | 268 kts | 32° |
| 2026-05-01 10:31 | 49.62612 | 11.32012 | 7582 ft | 269 kts | 32° |
| 2026-05-01 10:32 | 49.65885 | 11.34879 | 8270 ft | 271 kts | 32° |
| 2026-05-01 10:32 | 49.67528 | 11.36327 | 8624 ft | 272 kts | 32° |
| 2026-05-01 10:32 | 49.70826 | 11.39244 | 9352 ft | 274 kts | 32° |
| 2026-05-01 10:33 | 49.74162 | 11.42203 | 10080 ft | 277 kts | 32° |
| 2026-05-01 10:33 | 49.77579 | 11.45248 | 10788 ft | 310 kts | 32° |
| 2026-05-01 10:34 | 49.79549 | 11.47012 | 11132 ft | 341 kts | 32° |
| 2026-05-01 10:34 | 49.81633 | 11.48873 | 11477 ft | 349 kts | 32° |
| 2026-05-01 10:34 | 49.83749 | 11.50758 | 11821 ft | 351 kts | 32° |
| 2026-05-01 10:35 | 49.88007 | 11.54556 | 12530 ft | 353 kts | 32° |
| 2026-05-01 10:35 | 49.90140 | 11.56463 | 12895 ft | 355 kts | 32° |
| 2026-05-01 10:35 | 49.92282 | 11.58382 | 13267 ft | 356 kts | 32° |
| 2026-05-01 10:35 | 49.94430 | 11.60310 | 13623 ft | 357 kts | 32° |
| 2026-05-01 10:36 | 49.98723 | 11.64167 | 14357 ft | 360 kts | 32° |
| 2026-05-01 10:36 | 50.00898 | 11.66126 | 14677 ft | 362 kts | 32° |
| 2026-05-01 10:36 | 50.03079 | 11.68091 | 15013 ft | 363 kts | 32° |
| 2026-05-01 10:37 | 50.05272 | 11.70070 | 15365 ft | 365 kts | 32° |
| 2026-05-01 10:37 | 50.09681 | 11.74054 | 16039 ft | 367 kts | 32° |
| 2026-05-01 10:37 | 50.11891 | 11.76054 | 16400 ft | 368 kts | 32° |
| 2026-05-01 10:38 | 50.14115 | 11.78069 | 16755 ft | 370 kts | 32° |
| 2026-05-01 10:38 | 50.16344 | 11.80091 | 17099 ft | 371 kts | 32° |
| 2026-05-01 10:38 | 50.18487 | 11.82344 | 17474 ft | 371 kts | 43° |
| 2026-05-01 10:38 | 50.20204 | 11.85328 | 17844 ft | 370 kts | 54° |
| 2026-05-01 10:39 | 50.21608 | 11.88652 | 18194 ft | 372 kts | 59° |
| 2026-05-01 10:39 | 50.22927 | 11.92127 | 18591 ft | 374 kts | 60° |
| 2026-05-01 10:39 | 50.24240 | 11.95655 | 18937 ft | 375 kts | 60° |
| 2026-05-01 10:39 | 50.25564 | 11.99181 | 19259 ft | 377 kts | 59° |
| 2026-05-01 10:40 | 50.26963 | 12.02677 | 19595 ft | 379 kts | 57° |
| 2026-05-01 10:40 | 50.28422 | 12.06119 | 19945 ft | 380 kts | 56° |
| 2026-05-01 10:40 | 50.29914 | 12.09557 | 20296 ft | 382 kts | 56° |
| 2026-05-01 10:40 | 50.31421 | 12.13001 | 20403 ft | 384 kts | 56° |
| 2026-05-01 10:41 | 50.32932 | 12.16452 | 20422 ft | 384 kts | 56° |
| 2026-05-01 10:41 | 50.34425 | 12.19917 | 20425 ft | 384 kts | 58° |
| 2026-05-01 10:41 | 50.37038 | 12.27145 | 20371 ft | 383 kts | 62° |
| 2026-05-01 10:42 | 50.38278 | 12.30858 | 19890 ft | 382 kts | 62° |
| 2026-05-01 10:42 | 50.39499 | 12.34547 | 19411 ft | 380 kts | 62° |
| 2026-05-01 10:42 | 50.40714 | 12.38216 | 18945 ft | 377 kts | 63° |
| 2026-05-01 10:42 | 50.41924 | 12.41861 | 18436 ft | 375 kts | 63° |
| 2026-05-01 10:43 | 50.43126 | 12.45471 | 17912 ft | 372 kts | 62° |
| 2026-05-01 10:43 | 50.44321 | 12.49060 | 17372 ft | 370 kts | 62° |
| 2026-05-01 10:43 | 50.45512 | 12.52635 | 16870 ft | 368 kts | 63° |
| 2026-05-01 10:43 | 50.46677 | 12.56133 | 16352 ft | 366 kts | 63° |
| 2026-05-01 10:44 | 50.47851 | 12.59664 | 15853 ft | 363 kts | 63° |
| 2026-05-01 10:44 | 50.49016 | 12.63171 | 15377 ft | 360 kts | 62° |
| 2026-05-01 10:44 | 50.50173 | 12.66661 | 14893 ft | 358 kts | 62° |
| 2026-05-01 10:44 | 50.51319 | 12.70122 | 14417 ft | 356 kts | 62° |
| 2026-05-01 10:45 | 50.52457 | 12.73560 | 13895 ft | 354 kts | 62° |
| 2026-05-01 10:45 | 50.53583 | 12.76968 | 13391 ft | 352 kts | 63° |
| 2026-05-01 10:45 | 50.54707 | 12.80375 | 12858 ft | 350 kts | 63° |
| 2026-05-01 10:45 | 50.55823 | 12.83763 | 12349 ft | 348 kts | 63° |
| 2026-05-01 10:46 | 50.56932 | 12.87134 | 11828 ft | 345 kts | 63° |
| 2026-05-01 10:46 | 50.58031 | 12.90476 | 11358 ft | 343 kts | 63° |
| 2026-05-01 10:46 | 50.59123 | 12.93806 | 10868 ft | 341 kts | 63° |
| 2026-05-01 10:46 | 50.60186 | 12.97072 | 10396 ft | 339 kts | 63° |
| 2026-05-01 10:47 | 50.61239 | 13.00331 | 9870 ft | 328 kts | 63° |
| 2026-05-01 10:47 | 50.62265 | 13.03481 | 9332 ft | 316 kts | 62° |
| 2026-05-01 10:47 | 50.63534 | 13.06244 | 8818 ft | 308 kts | 49° |
| 2026-05-01 10:47 | 50.65045 | 13.08590 | 8313 ft | 302 kts | 44° |
| 2026-05-01 10:48 | 50.66596 | 13.10775 | 7817 ft | 297 kts | 43° |
| 2026-05-01 10:48 | 50.68142 | 13.12907 | 7325 ft | 293 kts | 43° |
| 2026-05-01 10:48 | 50.69664 | 13.15009 | 6823 ft | 289 kts | 43° |
| 2026-05-01 10:48 | 50.71166 | 13.17092 | 6311 ft | 285 kts | 43° |
| 2026-05-01 10:49 | 50.72647 | 13.19153 | 5814 ft | 283 kts | 42° |
| 2026-05-01 10:49 | 50.74088 | 13.21168 | 5436 ft | 277 kts | 42° |
| 2026-05-01 10:49 | 50.75519 | 13.23170 | 5036 ft | 272 kts | 42° |
| 2026-05-01 10:49 | 50.76922 | 13.25136 | 4655 ft | 268 kts | 42° |
| 2026-05-01 10:50 | 50.78292 | 13.27061 | 4435 ft | 258 kts | 42° |
| 2026-05-01 10:50 | 50.79624 | 13.28930 | 4419 ft | 255 kts | 42° |
| 2026-05-01 10:50 | 50.80943 | 13.30790 | 4420 ft | 254 kts | 42° |
| 2026-05-01 10:50 | 50.81749 | 13.31926 | 4459 ft | 253 kts | 42° |
| 2026-05-01 11:00 | 50.82971 | 13.33649 | 4429 ft | 252 kts | 42° |
| 2026-05-01 11:00 | 50.84285 | 13.35505 | 4402 ft | 252 kts | 42° |
| 2026-05-01 11:00 | 50.85603 | 13.37369 | 4088 ft | 256 kts | 41° |
| 2026-05-01 11:00 | 50.86911 | 13.39214 | 3952 ft | 249 kts | 41° |
| 2026-05-01 11:01 | 50.88197 | 13.41030 | 3963 ft | 252 kts | 41° |
| 2026-05-01 11:01 | 50.89507 | 13.42889 | 3943 ft | 252 kts | 41° |
| 2026-05-01 11:01 | 50.90812 | 13.44738 | 3942 ft | 250 kts | 41° |
| 2026-05-01 11:01 | 50.92115 | 13.46585 | 3931 ft | 250 kts | 41° |
| 2026-05-01 11:02 | 50.93416 | 13.48428 | 3945 ft | 251 kts | 41° |
| 2026-05-01 11:02 | 50.94677 | 13.50326 | 3946 ft | 245 kts | 45° |
| 2026-05-01 11:02 | 50.95828 | 13.52199 | 3946 ft | 228 kts | 45° |
| 2026-05-01 11:02 | 50.96923 | 13.53934 | 3944 ft | 218 kts | 44° |
| 2026-05-01 11:03 | 50.98008 | 13.55589 | 3950 ft | 215 kts | 43° |
| 2026-05-01 11:03 | 50.99077 | 13.57099 | 3946 ft | 198 kts | 40° |
| 2026-05-01 11:03 | 51.00052 | 13.58434 | 3919 ft | 174 kts | 41° |
| 2026-05-01 11:03 | 51.00937 | 13.59649 | 3682 ft | 160 kts | 40° |
| 2026-05-01 11:04 | 51.01764 | 13.60781 | 3478 ft | 154 kts | 39° |
| 2026-05-01 11:04 | 51.02570 | 13.61884 | 3313 ft | 152 kts | 39° |
| 2026-05-01 11:04 | 51.03374 | 13.62983 | 3065 ft | 152 kts | 39° |
| 2026-05-01 11:04 | 51.04182 | 13.64091 | 2884 ft | 153 kts | 40° |
| 2026-05-01 11:05 | 51.04991 | 13.65200 | 2704 ft | 153 kts | 40° |
| 2026-05-01 11:05 | 51.05796 | 13.66301 | 2454 ft | 153 kts | 39° |
| 2026-05-01 11:05 | 51.06579 | 13.67379 | 2265 ft | 146 kts | 40° |
| 2026-05-01 11:05 | 51.07342 | 13.68424 | 2082 ft | 144 kts | 39° |
| 2026-05-01 11:06 | 51.08102 | 13.69465 | 1864 ft | 144 kts | 38° |
| 2026-05-01 11:06 | 51.08859 | 13.70501 | 1688 ft | 143 kts | 40° |
| 2026-05-01 11:06 | 51.09608 | 13.71532 | 1459 ft | 142 kts | 39° |
| 2026-05-01 11:07 | 51.11104 | 13.73594 | 1095 ft | 143 kts | 40° |
| 2026-05-01 11:07 | 51.11857 | 13.74630 | 909 ft | 142 kts | 39° |
| 2026-05-01 11:07 | 51.12596 | 13.75645 | 730 ft | 140 kts | 39° |
| 2026-05-01 11:07 | 51.13235 | 13.76523 | 723 ft | 97 kts | 41° |
| 2026-05-01 11:08 | 51.13634 | 13.77073 | 724 ft | 54 kts | 41° |
| 2026-05-01 11:08 | 51.13851 | 13.77370 | 724 ft | 24 kts | 40° |
| 2026-05-01 11:08 | 51.13897 | 13.77507 | 720 ft | 5 kts | 105° |
| 2026-05-01 11:09 | 51.13849 | 13.77612 | 723 ft | 14 kts | 130° |
| 2026-05-01 11:09 | 51.13826 | 13.77655 | 721 ft | 0 kts | 131° |
| 2026-05-01 11:10 | 51.13825 | 13.77657 | 721 ft | 0 kts | 131° |
| 2026-05-01 11:10 | 51.13817 | 13.77673 | 720 ft | 8 kts | 131° |
| 2026-05-01 11:10 | 51.13735 | 13.77689 | 721 ft | 15 kts | 209° |
| 2026-05-01 11:10 | 51.13654 | 13.77580 | 723 ft | 19 kts | 221° |
| 2026-05-01 11:11 | 51.13533 | 13.77412 | 723 ft | 24 kts | 221° |
| 2026-05-01 11:11 | 51.13410 | 13.77244 | 721 ft | 24 kts | 220° |
| 2026-05-01 11:11 | 51.13278 | 13.77062 | 722 ft | 24 kts | 221° |
| 2026-05-01 11:11 | 51.13258 | 13.77034 | 723 ft | 0 kts | 221° |
| 2026-05-01 11:12 | 51.13234 | 13.77001 | 722 ft | 2 kts | 221° |
| 2026-05-01 11:12 | 51.13224 | 13.76988 | 722 ft | 2 kts | 221° |
| 2026-05-01 11:12 | 51.13216 | 13.76976 | 722 ft | 1 kts | 220° |
| 2026-05-01 11:12 | 51.13209 | 13.76967 | 722 ft | 1 kts | 221° |
| 2026-05-01 11:13 | 51.13203 | 13.76959 | 722 ft | 1 kts | 221° |
| 2026-05-01 11:13 | 51.13192 | 13.76944 | 722 ft | 2 kts | 221° |
| 2026-05-01 11:13 | 51.13181 | 13.76928 | 722 ft | 2 kts | 221° |
| 2026-05-01 11:13 | 51.13162 | 13.76902 | 720 ft | 9 kts | 220° |
| 2026-05-01 11:14 | 51.13072 | 13.76780 | 723 ft | 20 kts | 221° |
| 2026-05-01 11:14 | 51.12968 | 13.76637 | 722 ft | 19 kts | 221° |
| 2026-05-01 11:14 | 51.12868 | 13.76498 | 723 ft | 19 kts | 221° |
| 2026-05-01 11:14 | 51.12783 | 13.76383 | 721 ft | 13 kts | 220° |
| 2026-05-01 11:15 | 51.12730 | 13.76309 | 722 ft | 1 kts | 221° |
| 2026-05-01 11:15 | 51.12723 | 13.76299 | 723 ft | 1 kts | 221° |
| 2026-05-01 11:15 | 51.12714 | 13.76287 | 722 ft | 5 kts | 221° |
| 2026-05-01 11:15 | 51.12672 | 13.76228 | 722 ft | 8 kts | 221° |
| 2026-05-01 11:16 | 51.12655 | 13.76205 | 721 ft | 0 kts | 221° |
| 2026-05-01 11:16 | 51.12652 | 13.76201 | 722 ft | 4 kts | 221° |
| 2026-05-01 11:17 | 51.12595 | 13.76121 | 722 ft | 16 kts | 221° |
| 2026-05-01 11:17 | 51.12577 | 13.76098 | 723 ft | 0 kts | 218° |
| 2026-05-01 11:17 | 51.12573 | 13.76098 | 723 ft | 1 kts | 198° |
| 2026-05-01 11:17 | 51.12568 | 13.76101 | 723 ft | 1 kts | 168° |
| 2026-05-01 11:18 | 51.12562 | 13.76113 | 721 ft | 3 kts | 135° |
| 2026-05-01 11:18 | 51.12529 | 13.76163 | 721 ft | 9 kts | 145° |
| 2026-05-01 11:18 | 51.12481 | 13.76172 | 721 ft | 1 kts | 193° |
| 2026-05-01 11:18 | 51.12465 | 13.76158 | 720 ft | 6 kts | 214° |
| 2026-05-01 11:19 | 51.12455 | 13.76128 | 723 ft | 1 kts | 254° |
| 2026-05-01 11:19 | 51.12457 | 13.76113 | 721 ft | 3 kts | 278° |
| 2026-05-01 11:19 | 51.12460 | 13.76070 | 719 ft | 0 kts | 275° |